createdAt,value
2022-11-17T00:03:53.284Z,26.67
2022-11-17T00:08:02.579Z,25.37
2022-11-17T00:12:32.786Z,18.37
2022-11-17T00:16:44.218Z,16.77
2022-11-17T00:21:11.138Z,13.63
2022-11-17T00:25:20.238Z,15.23
2022-11-17T00:29:29.993Z,14.37
2022-11-17T00:33:58.251Z,16.07
2022-11-17T00:38:20.297Z,14.80
2022-11-17T00:42:33.321Z,12.17
2022-11-17T00:46:46.106Z,14.00
2022-11-17T00:50:56.537Z,17.77
2022-11-17T00:55:07.909Z,16.80
2022-11-17T00:59:17.938Z,14.77
2022-11-17T01:03:27.147Z,11.47
2022-11-17T01:07:42.043Z,13.83
2022-11-17T01:11:53.137Z,16.73
2022-11-17T01:16:05.973Z,15.40
2022-11-17T01:20:15.107Z,17.33
2022-11-17T01:24:27.127Z,17.27
2022-11-17T01:28:40.925Z,20.77
2022-11-17T01:32:50.962Z,18.23
2022-11-17T01:37:17.387Z,23.10
2022-11-17T02:06:24.800Z,21.37
2022-11-17T02:10:36.218Z,17.93
2022-11-17T02:14:48.215Z,18.47
2022-11-17T02:19:00.498Z,18.43
2022-11-17T02:23:36.278Z,17.67
2022-11-17T02:28:15.105Z,22.67
2022-11-17T02:32:30.838Z,21.33
2022-11-17T02:36:57.271Z,22.13
2022-11-17T02:41:13.878Z,17.43
2022-11-17T02:45:30.548Z,18.77
2022-11-17T02:49:43.830Z,12.30
2022-11-17T02:53:56.034Z,16.67
2022-11-17T02:58:05.948Z,23.77
2022-11-17T03:02:46.750Z,20.93
2022-11-17T03:07:26.831Z,23.17
2022-11-17T03:11:46.685Z,25.20
2022-11-17T03:16:02.064Z,19.50
2022-11-17T03:20:18.479Z,21.43
2022-11-17T03:29:20.448Z,17.23
2022-11-17T03:33:31.229Z,29.20
2022-11-17T03:37:44.704Z,25.47
2022-11-17T03:42:02.438Z,11.33
2022-11-17T03:46:17.368Z,9.60
2022-11-17T03:50:32.470Z,10.57
2022-11-17T03:54:43.399Z,13.53
2022-11-17T03:59:01.219Z,8.87
2022-11-17T04:03:12.610Z,6.47
2022-11-17T04:07:27.035Z,11.30
2022-11-17T04:11:53.780Z,7.77
2022-11-17T04:16:07.066Z,16.37
2022-11-17T04:20:16.642Z,10.87
2022-11-17T04:24:35.296Z,16.33
2022-11-17T04:28:47.194Z,11.07
2022-11-17T04:33:00.419Z,14.83
2022-11-17T04:37:17.710Z,18.23
2022-11-17T04:41:47.632Z,12.63
2022-11-17T04:46:01.644Z,14.80
2022-11-17T04:50:13.050Z,14.40
2022-11-17T04:54:25.518Z,12.77
2022-11-17T04:58:35.106Z,15.23
2022-11-17T05:02:47.104Z,14.83
2022-11-17T05:06:58.093Z,22.97
2022-11-17T05:11:56.905Z,18.60
2022-11-17T05:16:23.908Z,18.80
2022-11-17T05:20:34.926Z,18.60
2022-11-17T05:29:20.267Z,14.73
2022-11-17T05:33:37.444Z,16.17
2022-11-17T05:37:46.940Z,18.37
2022-11-17T05:41:56.408Z,19.43
2022-11-17T05:46:07.782Z,18.87
2022-11-17T05:50:17.225Z,16.63
2022-11-17T05:54:27.361Z,23.57
2022-11-17T05:58:43.397Z,16.80
2022-11-17T06:02:58.546Z,13.53
2022-11-17T06:07:08.484Z,14.07
2022-11-17T06:11:19.315Z,16.47
2022-11-17T06:15:31.403Z,10.23
2022-11-17T06:19:45.851Z,15.47
2022-11-17T06:23:55.367Z,12.47
2022-11-17T06:28:06.474Z,19.70
2022-11-17T06:32:16.676Z,15.63
2022-11-17T06:36:27.755Z,15.73
2022-11-17T06:40:37.416Z,17.37
2022-11-17T06:44:49.437Z,13.97
2022-11-17T06:48:59.157Z,13.27
2022-11-17T06:53:12.917Z,13.80
2022-11-17T06:57:33.601Z,11.73
2022-11-17T07:01:42.704Z,15.97
2022-11-17T07:05:53.206Z,15.17
2022-11-17T07:10:05.356Z,19.73
2022-11-17T07:14:18.777Z,14.70
2022-11-17T07:18:29.257Z,19.00
2022-11-17T07:22:38.482Z,14.87
2022-11-17T07:26:53.123Z,10.90
2022-11-17T07:31:05.567Z,16.10
2022-11-17T07:35:14.706Z,13.73
2022-11-17T07:39:24.384Z,14.20
2022-11-17T07:43:36.951Z,13.60
2022-11-17T07:47:46.448Z,13.13
2022-11-17T07:51:58.306Z,11.17
2022-11-17T07:56:10.575Z,14.97
2022-11-17T08:00:41.887Z,13.67
2022-11-17T08:04:52.878Z,11.50
2022-11-17T08:09:17.274Z,11.00
2022-11-17T08:13:27.419Z,14.03
2022-11-17T08:17:38.905Z,8.57
2022-11-17T08:21:48.680Z,9.43
2022-11-17T08:26:34.457Z,7.63
2022-11-17T08:30:55.232Z,8.57
2022-11-17T08:35:48.473Z,14.63
2022-11-17T08:44:42.650Z,11.43
2022-11-17T08:48:57.208Z,11.20
2022-11-17T08:57:51.929Z,11.40
2022-11-17T09:06:43.198Z,11.67
2022-11-17T09:10:52.190Z,10.50
2022-11-17T09:15:01.767Z,11.30
2022-11-17T09:19:15.471Z,10.20
2022-11-17T09:33:34.962Z,12.43
2022-11-17T10:11:34.229Z,8.77
2022-11-17T10:39:45.370Z,11.37
2022-11-17T10:44:02.264Z,11.47
2022-11-17T10:48:25.005Z,14.27
2022-11-17T10:58:50.220Z,9.27
2022-11-17T11:07:58.172Z,9.90
2022-11-17T11:12:18.893Z,13.93
2022-11-17T11:16:31.126Z,8.83
2022-11-17T11:20:47.779Z,7.90
2022-11-17T11:25:27.769Z,8.33
2022-11-17T11:44:33.432Z,11.70
2022-11-17T11:53:54.356Z,11.03
2022-11-17T12:02:40.468Z,7.73
2022-11-17T12:12:02.381Z,12.70
2022-11-17T12:21:14.393Z,7.40
2022-11-17T12:30:53.143Z,5.30
2022-11-17T12:40:08.138Z,10.17
2022-11-17T12:53:43.265Z,8.63
2022-11-17T12:57:51.090Z,10.03
2022-11-17T13:02:20.511Z,12.97
2022-11-17T13:06:37.489Z,12.77
2022-11-17T13:10:47.975Z,11.80
2022-11-17T13:15:27.962Z,15.07
2022-11-17T13:19:41.021Z,11.13
2022-11-17T13:23:50.725Z,9.27
2022-11-17T13:28:08.107Z,9.30
2022-11-17T13:32:20.515Z,9.07
2022-11-17T13:36:36.896Z,5.20
2022-11-17T13:40:46.724Z,7.47
2022-11-17T13:44:57.995Z,9.17
2022-11-17T13:49:37.473Z,5.60
2022-11-17T13:53:50.042Z,5.40
2022-11-17T13:58:02.342Z,6.63
2022-11-17T14:02:29.722Z,5.87
2022-11-17T14:06:55.396Z,7.30
2022-11-17T14:11:21.650Z,6.27
2022-11-17T14:15:33.117Z,6.20
2022-11-17T14:19:45.255Z,3.53
2022-11-17T14:24:07.381Z,2.33
2022-11-17T14:28:40.703Z,5.67
2022-11-17T14:32:49.913Z,7.03
2022-11-17T14:36:59.117Z,4.40
2022-11-17T14:41:16.932Z,5.53
2022-11-17T14:45:28.747Z,4.57
2022-11-17T14:49:38.880Z,7.17
2022-11-17T14:53:48.789Z,7.03
2022-11-17T14:57:57.927Z,7.20
2022-11-17T15:02:09.163Z,8.13
2022-11-17T15:06:35.703Z,7.50
2022-11-17T15:10:48.367Z,6.20
2022-11-17T15:14:58.424Z,5.17
2022-11-17T15:19:09.062Z,4.77
2022-11-17T15:23:19.109Z,4.13
2022-11-17T15:27:28.975Z,6.83
2022-11-17T15:31:47.799Z,5.10
2022-11-17T15:36:07.467Z,7.93
2022-11-17T15:40:19.649Z,8.33
2022-11-17T15:44:32.257Z,5.67
2022-11-17T15:48:50.029Z,10.27
2022-11-17T15:53:04.358Z,7.93
2022-11-17T15:57:26.011Z,5.93
2022-11-17T16:01:36.852Z,6.27
2022-11-17T16:06:17.207Z,7.93
2022-11-17T16:15:02.301Z,6.93
2022-11-17T16:24:03.647Z,7.77
2022-11-17T16:28:14.836Z,3.97
2022-11-17T16:32:30.804Z,3.30
2022-11-17T16:36:53.238Z,3.23
2022-11-17T16:41:17.435Z,2.30
2022-11-17T17:00:11.594Z,2.57
2022-11-17T17:47:21.933Z,7.07
2022-11-17T17:52:31.685Z,10.23
2022-11-17T17:56:58.666Z,10.30
2022-11-17T18:06:02.135Z,9.13
2022-11-17T18:10:19.800Z,8.20
2022-11-17T18:28:17.312Z,16.50
2022-11-17T18:32:32.481Z,10.03
2022-11-17T19:29:14.353Z,9.70
2022-11-17T19:33:46.306Z,8.80
2022-11-17T19:38:02.629Z,9.07
2022-11-17T19:42:14.998Z,13.53
2022-11-17T19:51:50.338Z,10.00
2022-11-17T19:56:12.777Z,10.00
2022-11-17T20:05:58.385Z,10.90
2022-11-17T20:19:32.498Z,14.17
2022-11-17T20:38:05.136Z,11.57
2022-11-17T20:42:18.060Z,10.83
2022-11-17T20:51:30.610Z,8.43
2022-11-17T21:05:18.578Z,10.63
2022-11-17T21:09:34.095Z,7.47
2022-11-17T21:14:05.954Z,11.87
2022-11-17T21:18:22.822Z,10.57
2022-11-17T22:05:15.260Z,12.33
2022-11-17T23:02:42.496Z,8.73
2022-11-17T23:26:14.019Z,9.60
2022-11-17T23:35:54.131Z,7.57
2022-11-17T23:44:27.494Z,8.50
2022-11-17T23:58:14.667Z,9.17
